Jamaica, New York
Current Conditions -  °F | °C
As of 10:51 AM on Wednesday 28 Jan 2015 (Local Time) from KJFK Reporting Station
Scattered Clouds Scattered Clouds  
Wind Chill: 11°   Ceiling: Unl
Heat Index: 24°   Visibility: 10mi
Dew Point:   Wind: 17mph
Humidity: 44%   Direction: 320°NW
Pressure: 30.07"   Gusts: NA
Location:  40.69°N, 73.81°W
Report Text: KJFK 281551Z 32015KT 10SM R04R/5000VP6000FT FEW050 SCT100 SCT250 M04/M15 A3007 RMK AO2 SLP182 T10441150 $
Loading
Personal Weather Stations






























Interactive Weather Map New forecast layout! Learn more

10-Day Weather Forecast

Advertisements
Track Severe Weather on mobile